sensor_id;sensor_type;location;lat;lon;timestamp;pressure;altitude;pressure_sealevel;temperature;humidity
19576;BME280;41589;51.196;7.074;2023-05-12T00:04:40;98782.44;;;13.86;100.00
19576;BME280;41589;51.196;7.074;2023-05-12T00:09:41;98773.91;;;13.66;100.00
19576;BME280;41589;51.196;7.074;2023-05-12T00:14:41;98779.66;;;13.56;100.00
19576;BME280;41589;51.196;7.074;2023-05-12T00:19:42;98772.38;;;13.50;100.00
19576;BME280;41589;51.196;7.074;2023-05-12T00:24:43;98766.03;;;13.40;100.00
19576;BME280;41589;51.196;7.074;2023-05-12T00:29:43;98765.75;;;13.38;100.00
19576;BME280;41589;51.196;7.074;2023-05-12T00:34:48;98768.53;;;13.33;100.00
19576;BME280;41589;51.196;7.074;2023-05-12T00:39:52;98769.09;;;13.37;100.00
19576;BME280;41589;51.196;7.074;2023-05-12T00:44:53;98779.78;;;13.47;100.00
19576;BME280;41589;51.196;7.074;2023-05-12T00:49:57;98780.25;;;13.61;100.00
19576;BME280;41589;51.196;7.074;2023-05-12T00:54:59;98785.03;;;13.54;100.00
19576;BME280;41589;51.196;7.074;2023-05-12T01:00:04;98777.94;;;13.44;100.00
19576;BME280;41589;51.196;7.074;2023-05-12T01:05:06;98748.97;;;13.14;100.00
19576;BME280;41589;51.196;7.074;2023-05-12T01:10:16;98730.97;;;12.82;100.00
19576;BME280;41589;51.196;7.074;2023-05-12T01:15:17;98736.41;;;12.86;100.00
19576;BME280;41589;51.196;7.074;2023-05-12T01:20:20;98743.03;;;12.97;100.00
19576;BME280;41589;51.196;7.074;2023-05-12T01:25:22;98737.47;;;13.03;100.00
19576;BME280;41589;51.196;7.074;2023-05-12T01:30:24;98746.97;;;13.20;100.00
19576;BME280;41589;51.196;7.074;2023-05-12T01:35:26;98758.00;;;13.33;100.00
19576;BME280;41589;51.196;7.074;2023-05-12T01:40:33;98764.41;;;13.34;100.00
19576;BME280;41589;51.196;7.074;2023-05-12T01:45:33;98755.94;;;13.34;100.00
19576;BME280;41589;51.196;7.074;2023-05-12T01:50:34;98760.31;;;13.35;100.00
19576;BME280;41589;51.196;7.074;2023-05-12T01:55:36;98751.03;;;13.49;100.00
19576;BME280;41589;51.196;7.074;2023-05-12T02:00:36;98755.69;;;13.52;100.00
19576;BME280;41589;51.196;7.074;2023-05-12T02:05:38;98761.66;;;13.54;100.00
19576;BME280;41589;51.196;7.074;2023-05-12T02:10:39;98765.25;;;13.54;100.00
19576;BME280;41589;51.196;7.074;2023-05-12T02:15:40;98769.75;;;13.46;100.00
19576;BME280;41589;51.196;7.074;2023-05-12T02:20:40;98766.16;;;13.46;100.00
19576;BME280;41589;51.196;7.074;2023-05-12T02:25:42;98764.41;;;13.34;100.00
19576;BME280;41589;51.196;7.074;2023-05-12T02:30:47;98768.81;;;13.20;100.00
19576;BME280;41589;51.196;7.074;2023-05-12T02:35:48;98765.09;;;13.28;100.00
19576;BME280;41589;51.196;7.074;2023-05-12T02:40:49;98777.28;;;13.35;100.00
19576;BME280;41589;51.196;7.074;2023-05-12T02:45:50;98770.25;;;13.30;100.00
19576;BME280;41589;51.196;7.074;2023-05-12T02:50:51;98770.88;;;13.19;100.00
19576;BME280;41589;51.196;7.074;2023-05-12T02:55:52;98767.25;;;13.19;100.00
19576;BME280;41589;51.196;7.074;2023-05-12T03:00:52;98765.31;;;13.25;100.00
19576;BME280;41589;51.196;7.074;2023-05-12T03:05:53;98754.28;;;13.27;100.00
19576;BME280;41589;51.196;7.074;2023-05-12T03:10:53;98746.97;;;13.35;100.00
19576;BME280;41589;51.196;7.074;2023-05-12T03:15:54;98759.53;;;13.34;100.00
19576;BME280;41589;51.196;7.074;2023-05-12T03:20:54;98751.84;;;13.35;100.00
19576;BME280;41589;51.196;7.074;2023-05-12T03:25:57;98752.63;;;13.35;100.00
19576;BME280;41589;51.196;7.074;2023-05-12T03:30:58;98749.50;;;13.33;100.00
19576;BME280;41589;51.196;7.074;2023-05-12T03:35:59;98755.84;;;13.28;100.00
19576;BME280;41589;51.196;7.074;2023-05-12T03:41:03;98747.09;;;13.26;100.00
19576;BME280;41589;51.196;7.074;2023-05-12T03:46:04;98756.22;;;13.21;100.00
19576;BME280;41589;51.196;7.074;2023-05-12T03:51:05;98767.38;;;13.10;100.00
19576;BME280;41589;51.196;7.074;2023-05-12T03:56:05;98771.38;;;13.03;100.00
19576;BME280;41589;51.196;7.074;2023-05-12T04:01:06;98775.38;;;12.96;100.00
19576;BME280;41589;51.196;7.074;2023-05-12T04:06:06;98775.56;;;12.93;100.00
19576;BME280;41589;51.196;7.074;2023-05-12T04:11:07;98777.03;;;12.88;100.00
19576;BME280;41589;51.196;7.074;2023-05-12T04:16:08;98780.91;;;12.76;100.00
19576;BME280;41589;51.196;7.074;2023-05-12T04:21:09;98791.72;;;12.78;100.00
19576;BME280;41589;51.196;7.074;2023-05-12T04:26:09;98788.81;;;12.72;100.00
19576;BME280;41589;51.196;7.074;2023-05-12T04:31:09;98798.53;;;12.56;100.00
19576;BME280;41589;51.196;7.074;2023-05-12T04:36:11;98806.50;;;12.58;100.00
19576;BME280;41589;51.196;7.074;2023-05-12T04:41:13;98805.06;;;12.62;100.00
19576;BME280;41589;51.196;7.074;2023-05-12T04:46:13;98805.16;;;12.68;100.00
19576;BME280;41589;51.196;7.074;2023-05-12T04:51:14;98817.63;;;12.61;100.00
19576;BME280;41589;51.196;7.074;2023-05-12T04:56:15;98826.66;;;12.65;100.00
19576;BME280;41589;51.196;7.074;2023-05-12T05:01:16;98829.69;;;12.62;100.00
19576;BME280;41589;51.196;7.074;2023-05-12T05:06:17;98844.31;;;12.60;100.00
19576;BME280;41589;51.196;7.074;2023-05-12T05:11:18;98841.00;;;12.62;100.00
19576;BME280;41589;51.196;7.074;2023-05-12T05:16:19;98845.00;;;12.70;100.00
19576;BME280;41589;51.196;7.074;2023-05-12T05:21:21;98851.22;;;12.74;100.00
19576;BME280;41589;51.196;7.074;2023-05-12T05:26:21;98857.53;;;12.69;100.00
19576;BME280;41589;51.196;7.074;2023-05-12T05:31:24;98876.72;;;12.65;100.00
19576;BME280;41589;51.196;7.074;2023-05-12T05:36:25;98868.63;;;12.58;100.00
19576;BME280;41589;51.196;7.074;2023-05-12T05:41:26;98874.88;;;12.62;100.00
19576;BME280;41589;51.196;7.074;2023-05-12T05:46:26;98885.22;;;12.80;100.00
19576;BME280;41589;51.196;7.074;2023-05-12T05:51:27;98890.28;;;12.76;100.00
19576;BME280;41589;51.196;7.074;2023-05-12T05:56:27;98892.81;;;12.73;100.00
19576;BME280;41589;51.196;7.074;2023-05-12T06:01:30;98896.50;;;12.80;100.00
19576;BME280;41589;51.196;7.074;2023-05-12T06:06:31;98897.88;;;12.69;100.00
19576;BME280;41589;51.196;7.074;2023-05-12T06:11:33;98910.75;;;12.85;100.00
19576;BME280;41589;51.196;7.074;2023-05-12T06:16:33;98908.94;;;12.97;100.00
19576;BME280;41589;51.196;7.074;2023-05-12T06:21:34;98912.94;;;13.20;100.00
19576;BME280;41589;51.196;7.074;2023-05-12T06:26:35;98916.19;;;13.27;100.00
19576;BME280;41589;51.196;7.074;2023-05-12T06:31:35;98928.38;;;13.48;100.00
19576;BME280;41589;51.196;7.074;2023-05-12T06:36:44;98932.25;;;13.51;100.00
19576;BME280;41589;51.196;7.074;2023-05-12T06:41:47;98934.53;;;13.62;100.00
19576;BME280;41589;51.196;7.074;2023-05-12T06:46:54;98936.09;;;13.63;100.00
19576;BME280;41589;51.196;7.074;2023-05-12T06:51:58;98954.13;;;13.80;100.00
19576;BME280;41589;51.196;7.074;2023-05-12T06:57:00;98950.78;;;13.52;100.00
19576;BME280;41589;51.196;7.074;2023-05-12T07:02:03;98952.38;;;13.53;100.00
19576;BME280;41589;51.196;7.074;2023-05-12T07:07:14;98951.88;;;13.54;100.00
19576;BME280;41589;51.196;7.074;2023-05-12T07:12:14;98961.16;;;13.70;100.00
19576;BME280;41589;51.196;7.074;2023-05-12T07:17:17;98966.41;;;13.92;100.00
19576;BME280;41589;51.196;7.074;2023-05-12T07:22:17;98969.34;;;13.82;100.00
19576;BME280;41589;51.196;7.074;2023-05-12T07:27:20;98969.72;;;13.90;100.00
19576;BME280;41589;51.196;7.074;2023-05-12T07:32:21;98966.50;;;13.97;100.00
19576;BME280;41589;51.196;7.074;2023-05-12T07:37:21;98971.22;;;13.85;100.00
19576;BME280;41589;51.196;7.074;2023-05-12T07:42:21;98969.91;;;14.16;100.00
19576;BME280;41589;51.196;7.074;2023-05-12T07:47:25;98981.41;;;14.12;100.00
19576;BME280;41589;51.196;7.074;2023-05-12T07:52:27;98979.19;;;14.02;100.00
19576;BME280;41589;51.196;7.074;2023-05-12T07:57:33;98985.91;;;14.04;100.00
19576;BME280;41589;51.196;7.074;2023-05-12T08:02:39;98999.97;;;13.99;100.00
19576;BME280;41589;51.196;7.074;2023-05-12T08:07:39;98995.97;;;14.05;100.00
19576;BME280;41589;51.196;7.074;2023-05-12T08:12:43;98997.81;;;14.08;100.00
19576;BME280;41589;51.196;7.074;2023-05-12T08:17:43;99012.53;;;14.12;100.00
19576;BME280;41589;51.196;7.074;2023-05-12T08:22:43;99012.94;;;14.05;100.00
19576;BME280;41589;51.196;7.074;2023-05-12T08:27:45;99015.03;;;14.25;100.00
19576;BME280;41589;51.196;7.074;2023-05-12T08:32:46;99016.69;;;14.32;100.00
19576;BME280;41589;51.196;7.074;2023-05-12T08:37:48;99027.41;;;14.42;100.00
19576;BME280;41589;51.196;7.074;2023-05-12T08:43:02;99019.59;;;14.52;100.00
19576;BME280;41589;51.196;7.074;2023-05-12T08:48:16;99031.22;;;14.89;100.00
19576;BME280;41589;51.196;7.074;2023-05-12T08:53:20;99033.84;;;15.13;100.00
19576;BME280;41589;51.196;7.074;2023-05-12T08:58:21;99037.88;;;15.27;100.00
19576;BME280;41589;51.196;7.074;2023-05-12T09:03:22;99047.09;;;15.68;100.00
19576;BME280;41589;51.196;7.074;2023-05-12T09:08:27;99043.47;;;15.88;100.00
19576;BME280;41589;51.196;7.074;2023-05-12T09:13:40;99039.94;;;15.99;100.00
19576;BME280;41589;51.196;7.074;2023-05-12T09:18:49;99042.44;;;15.91;100.00
19576;BME280;41589;51.196;7.074;2023-05-12T09:24:10;99043.28;;;15.97;100.00
19576;BME280;41589;51.196;7.074;2023-05-12T09:29:11;99048.38;;;16.51;100.00
19576;BME280;41589;51.196;7.074;2023-05-12T09:34:14;99047.91;;;16.95;100.00
19576;BME280;41589;51.196;7.074;2023-05-12T09:39:25;99051.31;;;16.99;100.00
19576;BME280;41589;51.196;7.074;2023-05-12T09:44:25;99053.31;;;16.93;100.00
19576;BME280;41589;51.196;7.074;2023-05-12T09:49:28;99043.00;;;16.95;100.00
19576;BME280;41589;51.196;7.074;2023-05-12T09:54:29;99056.00;;;17.13;100.00
19576;BME280;41589;51.196;7.074;2023-05-12T09:59:32;99048.00;;;17.17;100.00
19576;BME280;41589;51.196;7.074;2023-05-12T10:04:43;99070.69;;;17.00;100.00
19576;BME280;41589;51.196;7.074;2023-05-12T10:09:46;99061.19;;;17.09;100.00
19576;BME280;41589;51.196;7.074;2023-05-12T10:14:48;99054.16;;;16.99;100.00
19576;BME280;41589;51.196;7.074;2023-05-12T10:19:50;99047.97;;;17.06;100.00
19576;BME280;41589;51.196;7.074;2023-05-12T10:24:52;99044.69;;;17.19;100.00
19576;BME280;41589;51.196;7.074;2023-05-12T10:29:54;99054.38;;;17.49;100.00
19576;BME280;41589;51.196;7.074;2023-05-12T10:34:54;99049.25;;;17.65;100.00
19576;BME280;41589;51.196;7.074;2023-05-12T10:39:58;99055.44;;;17.57;98.80
19576;BME280;41589;51.196;7.074;2023-05-12T10:45:00;99051.75;;;17.46;100.00
19576;BME280;41589;51.196;7.074;2023-05-12T10:50:01;99053.00;;;17.28;100.00
19576;BME280;41589;51.196;7.074;2023-05-12T10:55:02;99050.63;;;17.26;100.00
19576;BME280;41589;51.196;7.074;2023-05-12T11:00:03;99053.81;;;17.45;100.00
19576;BME280;41589;51.196;7.074;2023-05-12T11:05:09;99055.94;;;17.56;100.00
19576;BME280;41589;51.196;7.074;2023-05-12T11:10:10;99048.72;;;17.60;100.00
19576;BME280;41589;51.196;7.074;2023-05-12T11:15:11;99050.84;;;17.71;100.00
19576;BME280;41589;51.196;7.074;2023-05-12T11:20:21;99051.09;;;17.79;100.00
19576;BME280;41589;51.196;7.074;2023-05-12T11:25:25;99062.91;;;17.49;100.00
19576;BME280;41589;51.196;7.074;2023-05-12T11:30:26;99063.25;;;17.14;98.46
19576;BME280;41589;51.196;7.074;2023-05-12T11:35:29;99069.00;;;17.25;100.00
19576;BME280;41589;51.196;7.074;2023-05-12T11:40:30;99067.56;;;17.52;100.00
19576;BME280;41589;51.196;7.074;2023-05-12T11:45:30;99058.06;;;17.78;100.00
19576;BME280;41589;51.196;7.074;2023-05-12T11:50:33;99045.44;;;18.01;100.00
19576;BME280;41589;51.196;7.074;2023-05-12T11:55:35;99065.09;;;17.88;99.00
19576;BME280;41589;51.196;7.074;2023-05-12T12:00:36;99075.69;;;17.82;98.49
19576;BME280;41589;51.196;7.074;2023-05-12T12:05:37;99052.44;;;18.34;100.00
19576;BME280;41589;51.196;7.074;2023-05-12T12:10:41;99059.69;;;18.35;96.42
19576;BME280;41589;51.196;7.074;2023-05-12T12:15:42;99072.88;;;17.99;95.07
19576;BME280;41589;51.196;7.074;2023-05-12T12:20:43;99071.59;;;18.11;96.99
19576;BME280;41589;51.196;7.074;2023-05-12T12:25:46;99085.31;;;18.18;98.89
19576;BME280;41589;51.196;7.074;2023-05-12T12:30:46;99074.97;;;18.37;100.00
19576;BME280;41589;51.196;7.074;2023-05-12T12:35:47;99089.00;;;18.46;96.96
19576;BME280;41589;51.196;7.074;2023-05-12T12:40:47;99083.56;;;18.54;99.10
19576;BME280;41589;51.196;7.074;2023-05-12T12:45:47;99085.03;;;18.10;93.58
19576;BME280;41589;51.196;7.074;2023-05-12T12:50:48;99080.94;;;18.11;98.97
19576;BME280;41589;51.196;7.074;2023-05-12T12:55:48;99076.53;;;18.16;99.21
19576;BME280;41589;51.196;7.074;2023-05-12T13:00:49;99085.59;;;18.26;99.22
19576;BME280;41589;51.196;7.074;2023-05-12T13:05:50;99092.34;;;18.23;100.00
19576;BME280;41589;51.196;7.074;2023-05-12T13:10:50;99087.66;;;18.03;98.21
19576;BME280;41589;51.196;7.074;2023-05-12T13:15:51;99085.56;;;18.03;100.00
19576;BME280;41589;51.196;7.074;2023-05-12T13:20:52;99079.94;;;18.54;100.00
19576;BME280;41589;51.196;7.074;2023-05-12T13:25:53;99085.38;;;18.74;100.00
19576;BME280;41589;51.196;7.074;2023-05-12T13:31:07;99088.75;;;18.44;97.28
19576;BME280;41589;51.196;7.074;2023-05-12T13:36:07;99090.78;;;18.33;99.63
19576;BME280;41589;51.196;7.074;2023-05-12T13:41:07;99085.84;;;18.16;99.69
19576;BME280;41589;51.196;7.074;2023-05-12T13:46:08;99085.84;;;18.16;99.20
19576;BME280;41589;51.196;7.074;2023-05-12T13:51:08;99091.03;;;18.18;94.83
19576;BME280;41589;51.196;7.074;2023-05-12T13:56:09;99074.72;;;18.35;100.00
19576;BME280;41589;51.196;7.074;2023-05-12T14:01:10;99085.38;;;18.57;100.00
19576;BME280;41589;51.196;7.074;2023-05-12T14:06:13;99084.31;;;18.32;100.00
19576;BME280;41589;51.196;7.074;2023-05-12T14:11:14;99077.09;;;18.54;98.69
19576;BME280;41589;51.196;7.074;2023-05-12T14:16:14;99075.50;;;18.86;100.00
19576;BME280;41589;51.196;7.074;2023-05-12T14:21:15;99075.19;;;19.07;100.00
19576;BME280;41589;51.196;7.074;2023-05-12T14:26:16;99074.94;;;18.93;96.95
19576;BME280;41589;51.196;7.074;2023-05-12T14:31:16;99084.81;;;18.81;90.63
19576;BME280;41589;51.196;7.074;2023-05-12T14:36:16;99080.63;;;18.93;95.52
19576;BME280;41589;51.196;7.074;2023-05-12T14:41:17;99076.19;;;19.15;96.94
19576;BME280;41589;51.196;7.074;2023-05-12T14:46:17;99074.44;;;19.64;95.92
19576;BME280;41589;51.196;7.074;2023-05-12T14:51:17;99076.09;;;19.95;86.47
19576;BME280;41589;51.196;7.074;2023-05-12T14:56:18;99067.72;;;19.61;85.93
19576;BME280;41589;51.196;7.074;2023-05-12T15:01:18;99084.91;;;19.50;87.19
19576;BME280;41589;51.196;7.074;2023-05-12T15:06:19;99085.94;;;19.53;89.16
19576;BME280;41589;51.196;7.074;2023-05-12T15:11:19;99094.91;;;18.99;78.13
19576;BME280;41589;51.196;7.074;2023-05-12T15:16:20;99102.97;;;18.95;82.39
19576;BME280;41589;51.196;7.074;2023-05-12T15:21:21;99122.41;;;18.85;79.43
19576;BME280;41589;51.196;7.074;2023-05-12T15:26:22;99123.97;;;18.58;79.51
19576;BME280;41589;51.196;7.074;2023-05-12T15:31:22;99142.31;;;18.24;81.98
19576;BME280;41589;51.196;7.074;2023-05-12T15:36:23;99130.03;;;17.78;79.37
19576;BME280;41589;51.196;7.074;2023-05-12T15:41:23;99136.06;;;17.43;81.08
19576;BME280;41589;51.196;7.074;2023-05-12T15:46:27;99129.72;;;17.17;78.06
19576;BME280;41589;51.196;7.074;2023-05-12T15:51:27;99118.84;;;17.15;79.68
19576;BME280;41589;51.196;7.074;2023-05-12T15:56:28;99122.25;;;17.19;81.67
19576;BME280;41589;51.196;7.074;2023-05-12T16:01:29;99126.22;;;17.39;83.06
19576;BME280;41589;51.196;7.074;2023-05-12T16:06:29;99123.66;;;17.41;81.82
19576;BME280;41589;51.196;7.074;2023-05-12T16:11:30;99116.66;;;17.42;82.26
19576;BME280;41589;51.196;7.074;2023-05-12T16:16:30;99115.75;;;17.62;83.11
19576;BME280;41589;51.196;7.074;2023-05-12T16:21:31;99112.97;;;17.89;85.57
19576;BME280;41589;51.196;7.074;2023-05-12T16:26:32;99115.09;;;18.17;88.79
19576;BME280;41589;51.196;7.074;2023-05-12T16:31:32;99103.22;;;18.41;88.28
19576;BME280;41589;51.196;7.074;2023-05-12T16:36:32;99104.75;;;18.42;82.67
19576;BME280;41589;51.196;7.074;2023-05-12T16:41:33;99096.75;;;18.52;79.63
19576;BME280;41589;51.196;7.074;2023-05-12T16:46:34;99111.53;;;18.50;77.29
19576;BME280;41589;51.196;7.074;2023-05-12T16:51:34;99107.13;;;18.71;76.92
19576;BME280;41589;51.196;7.074;2023-05-12T16:56:35;99116.41;;;19.00;78.03
19576;BME280;41589;51.196;7.074;2023-05-12T17:01:36;99104.75;;;18.92;75.69
19576;BME280;41589;51.196;7.074;2023-05-12T17:06:38;99116.97;;;18.87;75.05
19576;BME280;41589;51.196;7.074;2023-05-12T17:11:38;99126.81;;;18.97;77.04
19576;BME280;41589;51.196;7.074;2023-05-12T17:16:39;99128.59;;;19.00;76.97
19576;BME280;41589;51.196;7.074;2023-05-12T17:21:39;99139.72;;;19.15;77.72
19576;BME280;41589;51.196;7.074;2023-05-12T17:26:40;99144.94;;;19.28;78.50
19576;BME280;41589;51.196;7.074;2023-05-12T17:31:40;99153.41;;;19.50;82.01
19576;BME280;41589;51.196;7.074;2023-05-12T17:36:40;99166.19;;;19.27;79.44
19576;BME280;41589;51.196;7.074;2023-05-12T17:41:41;99158.66;;;19.29;82.21
19576;BME280;41589;51.196;7.074;2023-05-12T17:46:43;99164.13;;;19.27;82.36
19576;BME280;41589;51.196;7.074;2023-05-12T17:51:43;99180.97;;;19.14;81.95
19576;BME280;41589;51.196;7.074;2023-05-12T17:56:43;99165.66;;;19.98;87.03
19576;BME280;41589;51.196;7.074;2023-05-12T18:01:44;99168.16;;;20.59;85.69
19576;BME280;41589;51.196;7.074;2023-05-12T18:06:44;99166.63;;;20.58;85.03
19576;BME280;41589;51.196;7.074;2023-05-12T18:11:49;99172.13;;;20.51;84.39
19576;BME280;41589;51.196;7.074;2023-05-12T18:16:49;99174.84;;;21.03;84.04
19576;BME280;41589;51.196;7.074;2023-05-12T18:21:50;99178.84;;;20.59;82.27
19576;BME280;41589;51.196;7.074;2023-05-12T18:26:53;99186.00;;;19.77;82.70
19576;BME280;41589;51.196;7.074;2023-05-12T18:31:53;99186.66;;;19.25;83.88
19576;BME280;41589;51.196;7.074;2023-05-12T18:36:54;99193.69;;;18.80;84.61
19576;BME280;41589;51.196;7.074;2023-05-12T18:41:55;99198.59;;;18.57;85.54
19576;BME280;41589;51.196;7.074;2023-05-12T18:46:56;99195.75;;;18.45;87.03
19576;BME280;41589;51.196;7.074;2023-05-12T18:51:57;99192.31;;;18.25;88.30
19576;BME280;41589;51.196;7.074;2023-05-12T18:56:57;99194.31;;;18.07;88.23
19576;BME280;41589;51.196;7.074;2023-05-12T19:01:57;99203.59;;;17.91;87.47
19576;BME280;41589;51.196;7.074;2023-05-12T19:06:58;99216.66;;;17.66;86.76
19576;BME280;41589;51.196;7.074;2023-05-12T19:11:58;99212.19;;;17.54;84.51
19576;BME280;41589;51.196;7.074;2023-05-12T19:16:59;99222.03;;;17.58;85.43
19576;BME280;41589;51.196;7.074;2023-05-12T19:21:59;99227.94;;;17.49;84.29
19576;BME280;41589;51.196;7.074;2023-05-12T19:26:59;99238.63;;;17.60;85.84
19576;BME280;41589;51.196;7.074;2023-05-12T19:32:00;99245.59;;;17.59;86.86
19576;BME280;41589;51.196;7.074;2023-05-12T19:37:01;99248.94;;;17.57;87.77
19576;BME280;41589;51.196;7.074;2023-05-12T19:42:02;99251.47;;;17.50;88.42
19576;BME280;41589;51.196;7.074;2023-05-12T19:47:02;99256.84;;;17.42;88.56
19576;BME280;41589;51.196;7.074;2023-05-12T19:52:05;99258.59;;;17.28;88.93
19576;BME280;41589;51.196;7.074;2023-05-12T19:57:06;99267.00;;;17.17;89.75
19576;BME280;41589;51.196;7.074;2023-05-12T20:02:11;99263.84;;;17.10;91.12
19576;BME280;41589;51.196;7.074;2023-05-12T20:07:12;99265.34;;;17.05;90.62
19576;BME280;41589;51.196;7.074;2023-05-12T20:12:12;99267.84;;;16.92;90.19
19576;BME280;41589;51.196;7.074;2023-05-12T20:17:13;99281.78;;;16.90;91.11
19576;BME280;41589;51.196;7.074;2023-05-12T20:22:13;99288.28;;;16.96;91.61
19576;BME280;41589;51.196;7.074;2023-05-12T20:27:14;99287.22;;;16.93;90.10
19576;BME280;41589;51.196;7.074;2023-05-12T20:32:14;99294.63;;;16.85;89.90
19576;BME280;41589;51.196;7.074;2023-05-12T20:37:14;99292.69;;;16.71;90.56
19576;BME280;41589;51.196;7.074;2023-05-12T20:42:15;99293.34;;;16.60;90.97
19576;BME280;41589;51.196;7.074;2023-05-12T20:47:15;99290.81;;;16.42;89.96
19576;BME280;41589;51.196;7.074;2023-05-12T20:52:16;99289.41;;;16.32;91.11
19576;BME280;41589;51.196;7.074;2023-05-12T20:57:16;99291.41;;;16.26;91.30
19576;BME280;41589;51.196;7.074;2023-05-12T21:02:20;99290.50;;;16.14;93.09
19576;BME280;41589;51.196;7.074;2023-05-12T21:07:20;99292.31;;;15.97;91.19
19576;BME280;41589;51.196;7.074;2023-05-12T21:12:21;99302.13;;;15.96;91.98
19576;BME280;41589;51.196;7.074;2023-05-12T21:17:21;99294.25;;;16.05;92.86
19576;BME280;41589;51.196;7.074;2023-05-12T21:22:22;99296.22;;;16.20;93.05
19576;BME280;41589;51.196;7.074;2023-05-12T21:27:22;99297.16;;;16.11;91.97
19576;BME280;41589;51.196;7.074;2023-05-12T21:32:22;99290.53;;;16.20;92.24
19576;BME280;41589;51.196;7.074;2023-05-12T21:37:23;99300.44;;;16.24;91.89
19576;BME280;41589;51.196;7.074;2023-05-12T21:42:23;99298.50;;;16.15;91.26
19576;BME280;41589;51.196;7.074;2023-05-12T21:47:24;99302.19;;;16.01;90.91
19576;BME280;41589;51.196;7.074;2023-05-12T21:52:24;99292.19;;;15.85;90.71
19576;BME280;41589;51.196;7.074;2023-05-12T21:57:25;99294.16;;;15.79;91.13
19576;BME280;41589;51.196;7.074;2023-05-12T22:02:25;99297.69;;;15.74;90.77
19576;BME280;41589;51.196;7.074;2023-05-12T22:07:26;99287.66;;;15.94;91.80
19576;BME280;41589;51.196;7.074;2023-05-12T22:12:26;99296.38;;;16.10;91.23
19576;BME280;41589;51.196;7.074;2023-05-12T22:17:27;99282.81;;;16.20;90.64
19576;BME280;41589;51.196;7.074;2023-05-12T22:22:27;99293.16;;;16.23;89.07
19576;BME280;41589;51.196;7.074;2023-05-12T22:27:27;99296.81;;;16.24;89.72
19576;BME280;41589;51.196;7.074;2023-05-12T22:32:28;99297.38;;;16.28;89.04
19576;BME280;41589;51.196;7.074;2023-05-12T22:37:28;99300.84;;;16.37;89.00
19576;BME280;41589;51.196;7.074;2023-05-12T22:42:29;99294.56;;;16.33;87.36
19576;BME280;41589;51.196;7.074;2023-05-12T22:47:30;99297.72;;;16.35;85.54
19576;BME280;41589;51.196;7.074;2023-05-12T22:52:33;99292.97;;;16.27;82.63
19576;BME280;41589;51.196;7.074;2023-05-12T22:57:33;99298.38;;;16.25;81.53
19576;BME280;41589;51.196;7.074;2023-05-12T23:02:34;99301.91;;;16.20;81.61
19576;BME280;41589;51.196;7.074;2023-05-12T23:07:34;99299.19;;;16.10;79.33
19576;BME280;41589;51.196;7.074;2023-05-12T23:12:35;99286.88;;;16.13;79.62
19576;BME280;41589;51.196;7.074;2023-05-12T23:17:35;99289.63;;;16.08;76.21
19576;BME280;41589;51.196;7.074;2023-05-12T23:22:36;99287.44;;;15.97;74.67
19576;BME280;41589;51.196;7.074;2023-05-12T23:27:47;99284.94;;;15.84;73.91
19576;BME280;41589;51.196;7.074;2023-05-12T23:32:52;99285.84;;;15.76;73.97
19576;BME280;41589;51.196;7.074;2023-05-12T23:37:53;99282.50;;;15.77;71.69
19576;BME280;41589;51.196;7.074;2023-05-12T23:42:53;99276.84;;;15.77;71.56
19576;BME280;41589;51.196;7.074;2023-05-12T23:47:59;99268.88;;;15.81;71.88
19576;BME280;41589;51.196;7.074;2023-05-12T23:53:06;99270.75;;;15.84;72.66
19576;BME280;41589;51.196;7.074;2023-05-12T23:58:13;99270.03;;;15.89;72.09
